sensor_id;sensor_type;location;lat;lon;timestamp;pressure;altitude;pressure_sealevel;temperature;humidity
60089;BME280;45961;53.574;55.878;2024-02-23T00:00:51;102326.22;;;-27.09;65.89
60089;BME280;45961;53.574;55.878;2024-02-23T00:01:52;102319.41;;;-27.02;65.80
60089;BME280;45961;53.574;55.878;2024-02-23T00:02:54;102326.66;;;-26.98;66.05
60089;BME280;45961;53.574;55.878;2024-02-23T00:03:56;102325.75;;;-26.98;66.04
60089;BME280;45961;53.574;55.878;2024-02-23T00:04:57;102324.63;;;-27.04;65.58
60089;BME280;45961;53.574;55.878;2024-02-23T00:05:58;102325.59;;;-27.08;65.63
60089;BME280;45961;53.574;55.878;2024-02-23T00:06:59;102330.47;;;-27.08;65.54
60089;BME280;45961;53.574;55.878;2024-02-23T00:08:00;102323.59;;;-26.92;65.82
60089;BME280;45961;53.574;55.878;2024-02-23T00:09:00;102326.56;;;-26.89;65.69
60089;BME280;45961;53.574;55.878;2024-02-23T00:10:01;102325.13;;;-26.97;65.63
60089;BME280;45961;53.574;55.878;2024-02-23T00:11:03;102325.75;;;-26.98;65.69
60089;BME280;45961;53.574;55.878;2024-02-23T00:12:04;102326.66;;;-26.98;65.46
60089;BME280;45961;53.574;55.878;2024-02-23T00:13:05;102331.53;;;-26.98;65.47
60089;BME280;45961;53.574;55.878;2024-02-23T00:14:06;102331.13;;;-26.87;65.78
60089;BME280;45961;53.574;55.878;2024-02-23T00:15:07;102323.06;;;-26.78;65.92
60089;BME280;45961;53.574;55.878;2024-02-23T00:16:08;102326.03;;;-26.70;65.87
60089;BME280;45961;53.574;55.878;2024-02-23T00:17:08;102324.81;;;-26.68;65.90
60089;BME280;45961;53.574;55.878;2024-02-23T00:18:09;102315.28;;;-26.63;65.89
60089;BME280;45961;53.574;55.878;2024-02-23T00:19:10;102325.59;;;-26.60;66.00
60089;BME280;45961;53.574;55.878;2024-02-23T00:20:11;102324.75;;;-26.64;65.84
60089;BME280;45961;53.574;55.878;2024-02-23T00:21:12;102318.66;;;-26.66;65.75
60089;BME280;45961;53.574;55.878;2024-02-23T00:22:12;102323.50;;;-26.62;65.53
60089;BME280;45961;53.574;55.878;2024-02-23T00:23:13;102320.84;;;-26.68;65.80
60089;BME280;45961;53.574;55.878;2024-02-23T00:24:14;102320.84;;;-26.68;65.53
60089;BME280;45961;53.574;55.878;2024-02-23T00:25:16;102322.13;;;-26.74;65.59
60089;BME280;45961;53.574;55.878;2024-02-23T00:26:17;102321.50;;;-26.73;65.44
60089;BME280;45961;53.574;55.878;2024-02-23T00:27:20;102323.38;;;-26.76;65.02
60089;BME280;45961;53.574;55.878;2024-02-23T00:28:20;102324.03;;;-26.81;65.31
60089;BME280;45961;53.574;55.878;2024-02-23T00:29:21;102320.38;;;-26.79;65.39
60089;BME280;45961;53.574;55.878;2024-02-23T00:30:22;102325.25;;;-26.79;65.23
60089;BME280;45961;53.574;55.878;2024-02-23T00:31:23;102324.59;;;-26.78;65.42
60089;BME280;45961;53.574;55.878;2024-02-23T00:32:24;102330.38;;;-26.78;65.34
60089;BME280;45961;53.574;55.878;2024-02-23T00:33:25;102319.69;;;-26.74;65.30
60089;BME280;45961;53.574;55.878;2024-02-23T00:34:25;102322.75;;;-26.75;65.46
60089;BME280;45961;53.574;55.878;2024-02-23T00:35:26;102332.16;;;-26.73;65.46
60089;BME280;45961;53.574;55.878;2024-02-23T00:36:27;102329.22;;;-26.80;65.13
60089;BME280;45961;53.574;55.878;2024-02-23T00:37:28;102336.94;;;-26.90;65.31
60089;BME280;45961;53.574;55.878;2024-02-23T00:38:29;102335.19;;;-26.95;65.22
60089;BME280;45961;53.574;55.878;2024-02-23T00:39:30;102340.09;;;-27.00;65.21
60089;BME280;45961;53.574;55.878;2024-02-23T00:40:32;102345.19;;;-26.94;65.34
60089;BME280;45961;53.574;55.878;2024-02-23T00:41:34;102340.63;;;-26.92;65.17
60089;BME280;45961;53.574;55.878;2024-02-23T00:42:34;102342.03;;;-26.85;65.30
60089;BME280;45961;53.574;55.878;2024-02-23T00:43:38;102338.09;;;-26.84;65.27
60089;BME280;45961;53.574;55.878;2024-02-23T00:44:40;102338.16;;;-26.88;65.04
60089;BME280;45961;53.574;55.878;2024-02-23T00:45:40;102342.66;;;-26.86;65.13
60089;BME280;45961;53.574;55.878;2024-02-23T00:46:41;102341.44;;;-26.84;65.10
60089;BME280;45961;53.574;55.878;2024-02-23T00:47:42;102344.56;;;-26.93;64.93
60089;BME280;45961;53.574;55.878;2024-02-23T00:48:43;102345.25;;;-26.98;64.65
60089;BME280;45961;53.574;55.878;2024-02-23T00:49:44;102349.31;;;-27.07;64.46
60089;BME280;45961;53.574;55.878;2024-02-23T00:50:45;102345.97;;;-27.07;64.56
60089;BME280;45961;53.574;55.878;2024-02-23T00:51:46;102352.09;;;-27.09;64.44
60089;BME280;45961;53.574;55.878;2024-02-23T00:52:46;102348.19;;;-27.13;64.40
60089;BME280;45961;53.574;55.878;2024-02-23T00:53:47;102342.34;;;-27.09;64.67
60089;BME280;45961;53.574;55.878;2024-02-23T00:54:48;102354.88;;;-27.12;64.68
60089;BME280;45961;53.574;55.878;2024-02-23T00:55:49;102357.25;;;-27.08;64.55
60089;BME280;45961;53.574;55.878;2024-02-23T00:56:50;102350.09;;;-27.20;64.78
60089;BME280;45961;53.574;55.878;2024-02-23T00:57:51;102354.47;;;-27.31;64.44
60089;BME280;45961;53.574;55.878;2024-02-23T00:58:51;102348.13;;;-27.35;64.58
60089;BME280;45961;53.574;55.878;2024-02-23T00:59:52;102346.09;;;-27.45;64.66
60089;BME280;45961;53.574;55.878;2024-02-23T01:00:53;102346.41;;;-27.44;64.30
60089;BME280;45961;53.574;55.878;2024-02-23T01:01:54;102350.09;;;-27.50;64.38
60089;BME280;45961;53.574;55.878;2024-02-23T01:02:55;102347.63;;;-27.46;64.81
60089;BME280;45961;53.574;55.878;2024-02-23T01:03:58;102352.16;;;-27.43;64.95
60089;BME280;45961;53.574;55.878;2024-02-23T01:04:59;102353.38;;;-27.45;64.98
60089;BME280;45961;53.574;55.878;2024-02-23T01:05:59;102353.06;;;-27.43;65.02
60089;BME280;45961;53.574;55.878;2024-02-23T01:07:00;102357.00;;;-27.39;64.71
60089;BME280;45961;53.574;55.878;2024-02-23T01:08:01;102353.03;;;-27.39;64.69
60089;BME280;45961;53.574;55.878;2024-02-23T01:09:02;102349.09;;;-27.42;64.99
60089;BME280;45961;53.574;55.878;2024-02-23T01:10:05;102347.00;;;-27.45;65.03
60089;BME280;45961;53.574;55.878;2024-02-23T01:11:05;102352.16;;;-27.43;64.87
60089;BME280;45961;53.574;55.878;2024-02-23T01:12:06;102347.53;;;-27.38;64.97
60089;BME280;45961;53.574;55.878;2024-02-23T01:13:07;102356.31;;;-27.34;64.91
60089;BME280;45961;53.574;55.878;2024-02-23T01:14:08;102354.44;;;-27.27;64.96
60089;BME280;45961;53.574;55.878;2024-02-23T01:15:09;102350.25;;;-27.32;64.75
60089;BME280;45961;53.574;55.878;2024-02-23T01:16:10;102353.56;;;-27.32;64.64
60089;BME280;45961;53.574;55.878;2024-02-23T01:17:11;102345.09;;;-27.38;64.83
60089;BME280;45961;53.574;55.878;2024-02-23T01:18:11;102343.66;;;-27.45;64.59
60089;BME280;45961;53.574;55.878;2024-02-23T01:19:12;102346.44;;;-27.48;64.81
60089;BME280;45961;53.574;55.878;2024-02-23T01:20:13;102343.72;;;-27.54;64.60
60089;BME280;45961;53.574;55.878;2024-02-23T01:21:14;102351.00;;;-27.50;64.86
60089;BME280;45961;53.574;55.878;2024-02-23T01:22:15;102353.78;;;-27.52;64.76
60089;BME280;45961;53.574;55.878;2024-02-23T01:23:16;102353.81;;;-27.56;64.87
60089;BME280;45961;53.574;55.878;2024-02-23T01:24:17;102349.50;;;-27.53;64.64
60089;BME280;45961;53.574;55.878;2024-02-23T01:25:17;102359.16;;;-27.45;64.99
60089;BME280;45961;53.574;55.878;2024-02-23T01:26:18;102350.31;;;-27.40;65.05
60089;BME280;45961;53.574;55.878;2024-02-23T01:27:19;102353.34;;;-27.41;64.78
60089;BME280;45961;53.574;55.878;2024-02-23T01:28:20;102357.94;;;-27.43;64.80
60089;BME280;45961;53.574;55.878;2024-02-23T01:29:21;102360.25;;;-27.31;65.21
60089;BME280;45961;53.574;55.878;2024-02-23T01:30:22;102354.53;;;-27.35;65.19
60089;BME280;45961;53.574;55.878;2024-02-23T01:31:23;102361.50;;;-27.33;65.27
60089;BME280;45961;53.574;55.878;2024-02-23T01:32:24;102360.25;;;-27.31;65.38
60089;BME280;45961;53.574;55.878;2024-02-23T01:33:25;102352.41;;;-27.38;65.56
60089;BME280;45961;53.574;55.878;2024-02-23T01:34:25;102359.50;;;-27.48;65.43
60089;BME280;45961;53.574;55.878;2024-02-23T01:35:26;102367.53;;;-27.61;65.57
60089;BME280;45961;53.574;55.878;2024-02-23T01:36:28;102358.69;;;-27.56;65.78
60089;BME280;45961;53.574;55.878;2024-02-23T01:37:28;102365.06;;;-27.57;65.89
60089;BME280;45961;53.574;55.878;2024-02-23T01:38:29;102364.38;;;-27.48;65.91
60089;BME280;45961;53.574;55.878;2024-02-23T01:39:32;102360.66;;;-27.41;66.23
60089;BME280;45961;53.574;55.878;2024-02-23T01:40:33;102364.25;;;-27.35;66.21
60089;BME280;45961;53.574;55.878;2024-02-23T01:41:34;102365.69;;;-27.28;66.39
60089;BME280;45961;53.574;55.878;2024-02-23T01:42:35;102373.31;;;-27.30;66.15
60089;BME280;45961;53.574;55.878;2024-02-23T01:43:36;102368.72;;;-27.25;66.34
60089;BME280;45961;53.574;55.878;2024-02-23T01:44:37;102369.75;;;-27.36;66.27
60089;BME280;45961;53.574;55.878;2024-02-23T01:45:37;102374.03;;;-27.39;66.53
60089;BME280;45961;53.574;55.878;2024-02-23T01:46:38;102366.44;;;-27.41;66.41
60089;BME280;45961;53.574;55.878;2024-02-23T01:47:39;102376.19;;;-27.41;66.64
60089;BME280;45961;53.574;55.878;2024-02-23T01:48:40;102378.94;;;-27.43;66.41
60089;BME280;45961;53.574;55.878;2024-02-23T01:49:41;102381.44;;;-27.52;66.53
60089;BME280;45961;53.574;55.878;2024-02-23T01:50:42;102383.59;;;-27.57;66.30
60089;BME280;45961;53.574;55.878;2024-02-23T01:51:43;102390.28;;;-27.52;66.36
60089;BME280;45961;53.574;55.878;2024-02-23T01:52:44;102383.88;;;-27.52;66.38
60089;BME280;45961;53.574;55.878;2024-02-23T01:53:45;102382.63;;;-27.50;66.57
60089;BME280;45961;53.574;55.878;2024-02-23T01:54:46;102383.50;;;-27.45;66.59
60089;BME280;45961;53.574;55.878;2024-02-23T01:55:47;102374.34;;;-27.42;66.58
60089;BME280;45961;53.574;55.878;2024-02-23T01:56:48;102381.56;;;-27.34;66.58
60089;BME280;45961;53.574;55.878;2024-02-23T01:57:49;102378.84;;;-27.35;66.35
60089;BME280;45961;53.574;55.878;2024-02-23T01:58:50;102375.75;;;-27.30;66.55
60089;BME280;45961;53.574;55.878;2024-02-23T01:59:51;102376.34;;;-27.27;66.89
60089;BME280;45961;53.574;55.878;2024-02-23T02:00:52;102376.06;;;-27.29;66.92
60089;BME280;45961;53.574;55.878;2024-02-23T02:01:53;102368.09;;;-27.24;66.78
60089;BME280;45961;53.574;55.878;2024-02-23T02:02:54;102377.78;;;-27.19;66.66
60089;BME280;45961;53.574;55.878;2024-02-23T02:03:55;102375.94;;;-27.16;67.01
60089;BME280;45961;53.574;55.878;2024-02-23T02:04:57;102375.63;;;-27.18;66.75
60089;BME280;45961;53.574;55.878;2024-02-23T02:05:57;102374.06;;;-27.13;66.85
60089;BME280;45961;53.574;55.878;2024-02-23T02:07:02;102379.16;;;-27.08;66.86
60089;BME280;45961;53.574;55.878;2024-02-23T02:08:04;102374.88;;;-27.05;67.20
60089;BME280;45961;53.574;55.878;2024-02-23T02:09:05;102376.06;;;-27.03;66.94
60089;BME280;45961;53.574;55.878;2024-02-23T02:10:06;102383.41;;;-27.07;67.00
60089;BME280;45961;53.574;55.878;2024-02-23T02:11:08;102373.75;;;-27.11;66.52
60089;BME280;45961;53.574;55.878;2024-02-23T02:12:10;102381.88;;;-27.06;66.48
60089;BME280;45961;53.574;55.878;2024-02-23T02:13:11;102382.47;;;-27.03;66.54
60089;BME280;45961;53.574;55.878;2024-02-23T02:14:11;102384.25;;;-27.02;66.53
60089;BME280;45961;53.574;55.878;2024-02-23T02:15:12;102379.13;;;-27.04;66.32
60089;BME280;45961;53.574;55.878;2024-02-23T02:16:13;102385.78;;;-27.03;66.20
60089;BME280;45961;53.574;55.878;2024-02-23T02:17:14;102385.84;;;-27.07;66.07
60089;BME280;45961;53.574;55.878;2024-02-23T02:18:15;102377.91;;;-27.06;66.06
60089;BME280;45961;53.574;55.878;2024-02-23T02:19:16;102381.56;;;-27.04;65.88
60089;BME280;45961;53.574;55.878;2024-02-23T02:20:16;102387.06;;;-27.05;65.86
60089;BME280;45961;53.574;55.878;2024-02-23T02:21:19;102377.97;;;-27.10;65.73
60089;BME280;45961;53.574;55.878;2024-02-23T02:22:24;102384.09;;;-27.12;65.86
60089;BME280;45961;53.574;55.878;2024-02-23T02:23:25;102389.03;;;-27.16;65.49
60089;BME280;45961;53.574;55.878;2024-02-23T02:24:26;102385.06;;;-27.15;65.54
60089;BME280;45961;53.574;55.878;2024-02-23T02:25:28;102393.84;;;-27.12;65.68
60089;BME280;45961;53.574;55.878;2024-02-23T02:26:30;102384.00;;;-27.04;65.35
60089;BME280;45961;53.574;55.878;2024-02-23T02:27:31;102384.94;;;-27.07;65.38
60089;BME280;45961;53.574;55.878;2024-02-23T02:28:32;102384.00;;;-27.04;65.44
60089;BME280;45961;53.574;55.878;2024-02-23T02:29:33;102390.72;;;-27.07;65.04
60089;BME280;45961;53.574;55.878;2024-02-23T02:30:33;102385.38;;;-27.18;64.88
60089;BME280;45961;53.574;55.878;2024-02-23T02:31:34;102391.91;;;-27.31;64.65
60089;BME280;45961;53.574;55.878;2024-02-23T02:32:37;102397.19;;;-27.45;64.65
60089;BME280;45961;53.574;55.878;2024-02-23T02:33:39;102390.59;;;-27.55;64.46
60089;BME280;45961;53.574;55.878;2024-02-23T02:34:40;102389.38;;;-27.53;64.64
60089;BME280;45961;53.574;55.878;2024-02-23T02:35:41;102392.13;;;-27.55;64.43
60089;BME280;45961;53.574;55.878;2024-02-23T02:36:42;102397.31;;;-27.58;64.65
60089;BME280;45961;53.574;55.878;2024-02-23T02:37:42;102391.50;;;-27.54;64.59
60089;BME280;45961;53.574;55.878;2024-02-23T02:38:43;102395.66;;;-27.45;64.98
60089;BME280;45961;53.574;55.878;2024-02-23T02:39:44;102399.06;;;-27.49;65.00
60089;BME280;45961;53.574;55.878;2024-02-23T02:40:45;102390.53;;;-27.47;65.01
60089;BME280;45961;53.574;55.878;2024-02-23T02:41:47;102402.41;;;-27.48;65.17
60089;BME280;45961;53.574;55.878;2024-02-23T02:42:48;102398.88;;;-27.62;65.08
60089;BME280;45961;53.574;55.878;2024-02-23T02:43:49;102397.38;;;-27.66;65.30
60089;BME280;45961;53.574;55.878;2024-02-23T02:44:49;102395.53;;;-27.63;65.54
60089;BME280;45961;53.574;55.878;2024-02-23T02:45:50;102394.31;;;-27.61;65.79
60089;BME280;45961;53.574;55.878;2024-02-23T02:46:51;102391.22;;;-27.56;65.88
60089;BME280;45961;53.574;55.878;2024-02-23T02:47:52;102391.53;;;-27.58;66.29
60089;BME280;45961;53.574;55.878;2024-02-23T02:48:52;102398.84;;;-27.58;66.25
60089;BME280;45961;53.574;55.878;2024-02-23T02:49:53;102390.63;;;-27.59;66.62
60089;BME280;45961;53.574;55.878;2024-02-23T02:50:55;102397.25;;;-27.54;66.76
60089;BME280;45961;53.574;55.878;2024-02-23T02:51:55;102388.72;;;-27.48;66.70
60089;BME280;45961;53.574;55.878;2024-02-23T02:52:56;102386.00;;;-27.53;66.52
60089;BME280;45961;53.574;55.878;2024-02-23T02:53:57;102388.16;;;-27.55;66.47
60089;BME280;45961;53.574;55.878;2024-02-23T02:54:58;102389.94;;;-27.50;66.25
60089;BME280;45961;53.574;55.878;2024-02-23T02:55:59;102389.00;;;-27.46;66.39
60089;BME280;45961;53.574;55.878;2024-02-23T02:57:00;102385.06;;;-27.50;66.03
60089;BME280;45961;53.574;55.878;2024-02-23T02:58:00;102386.59;;;-27.50;66.18
60089;BME280;45961;53.574;55.878;2024-02-23T02:59:02;102392.06;;;-27.47;65.97
60089;BME280;45961;53.574;55.878;2024-02-23T03:00:03;102394.47;;;-27.47;65.85
60089;BME280;45961;53.574;55.878;2024-02-23T03:01:09;102390.44;;;-27.38;65.85
60089;BME280;45961;53.574;55.878;2024-02-23T03:02:10;102398.44;;;-27.48;65.85
60089;BME280;45961;53.574;55.878;2024-02-23T03:03:11;102399.72;;;-27.58;65.92
60089;BME280;45961;53.574;55.878;2024-02-23T03:04:13;102401.06;;;-27.68;65.92
60089;BME280;45961;53.574;55.878;2024-02-23T03:05:14;102397.13;;;-27.72;65.85
60089;BME280;45961;53.574;55.878;2024-02-23T03:06:15;102403.69;;;-27.58;65.74
60089;BME280;45961;53.574;55.878;2024-02-23T03:07:16;102412.22;;;-27.56;65.88
60089;BME280;45961;53.574;55.878;2024-02-23T03:08:17;102406.81;;;-27.67;65.73
60089;BME280;45961;53.574;55.878;2024-02-23T03:09:18;102407.72;;;-27.67;65.75
60089;BME280;45961;53.574;55.878;2024-02-23T03:10:19;102408.94;;;-27.65;66.28
60089;BME280;45961;53.574;55.878;2024-02-23T03:11:20;102408.31;;;-27.64;66.10
60089;BME280;45961;53.574;55.878;2024-02-23T03:12:21;102414.72;;;-27.64;66.14
60089;BME280;45961;53.574;55.878;2024-02-23T03:13:21;102418.63;;;-27.61;66.35
60089;BME280;45961;53.574;55.878;2024-02-23T03:14:22;102411.31;;;-27.57;66.62
60089;BME280;45961;53.574;55.878;2024-02-23T03:15:23;102419.53;;;-27.60;66.40
60089;BME280;45961;53.574;55.878;2024-02-23T03:16:24;102419.25;;;-27.66;66.58
60089;BME280;45961;53.574;55.878;2024-02-23T03:17:30;102419.19;;;-27.58;66.73
60089;BME280;45961;53.574;55.878;2024-02-23T03:18:31;102420.97;;;-27.49;66.86
60089;BME280;45961;53.574;55.878;2024-02-23T03:19:32;102417.34;;;-27.55;67.04
60089;BME280;45961;53.574;55.878;2024-02-23T03:20:33;102413.09;;;-27.52;66.73
60089;BME280;45961;53.574;55.878;2024-02-23T03:21:34;102423.53;;;-27.65;67.12
60089;BME280;45961;53.574;55.878;2024-02-23T03:22:35;102430.94;;;-27.73;67.01
60089;BME280;45961;53.574;55.878;2024-02-23T03:23:36;102430.69;;;-27.83;66.97
60089;BME280;45961;53.574;55.878;2024-02-23T03:24:36;102431.63;;;-27.86;66.82
60089;BME280;45961;53.574;55.878;2024-02-23T03:25:38;102434.34;;;-27.81;66.75
60089;BME280;45961;53.574;55.878;2024-02-23T03:26:39;102435.56;;;-27.87;66.91
60089;BME280;45961;53.574;55.878;2024-02-23T03:27:39;102436.38;;;-27.74;66.83
60089;BME280;45961;53.574;55.878;2024-02-23T03:28:40;102444.31;;;-27.75;66.97
60089;BME280;45961;53.574;55.878;2024-02-23T03:29:41;102440.66;;;-27.73;66.64
60089;BME280;45961;53.574;55.878;2024-02-23T03:30:42;102437.19;;;-27.65;66.69
60089;BME280;45961;53.574;55.878;2024-02-23T03:31:43;102442.38;;;-27.64;66.97
60089;BME280;45961;53.574;55.878;2024-02-23T03:32:44;102446.34;;;-27.64;66.73
60089;BME280;45961;53.574;55.878;2024-02-23T03:33:44;102450.34;;;-27.69;66.65
60089;BME280;45961;53.574;55.878;2024-02-23T03:34:46;102449.34;;;-27.61;66.58
60089;BME280;45961;53.574;55.878;2024-02-23T03:35:46;102453.59;;;-27.60;66.58
60089;BME280;45961;53.574;55.878;2024-02-23T03:36:47;102449.06;;;-27.63;66.49
60089;BME280;45961;53.574;55.878;2024-02-23T03:37:48;102450.56;;;-27.59;66.56
60089;BME280;45961;53.574;55.878;2024-02-23T03:38:52;102455.13;;;-27.61;66.53
60089;BME280;45961;53.574;55.878;2024-02-23T03:39:55;102460.00;;;-27.61;66.49
60089;BME280;45961;53.574;55.878;2024-02-23T03:40:55;102458.53;;;-27.68;66.48
60089;BME280;45961;53.574;55.878;2024-02-23T03:41:56;102464.28;;;-27.64;66.25
60089;BME280;45961;53.574;55.878;2024-02-23T03:43:02;102460.03;;;-27.65;66.41
60089;BME280;45961;53.574;55.878;2024-02-23T03:44:06;102462.47;;;-27.65;66.11
60089;BME280;45961;53.574;55.878;2024-02-23T03:45:06;102463.09;;;-27.70;66.13
60089;BME280;45961;53.574;55.878;2024-02-23T03:46:07;102465.59;;;-27.74;65.98
60089;BME280;45961;53.574;55.878;2024-02-23T03:47:08;102465.19;;;-27.63;65.89
60089;BME280;45961;53.574;55.878;2024-02-23T03:48:09;102467.91;;;-27.62;65.89
60089;BME280;45961;53.574;55.878;2024-02-23T03:49:10;102462.44;;;-27.61;65.72
60089;BME280;45961;53.574;55.878;2024-02-23T03:50:12;102465.16;;;-27.59;65.89
60089;BME280;45961;53.574;55.878;2024-02-23T03:51:13;102461.53;;;-27.65;65.59
60089;BME280;45961;53.574;55.878;2024-02-23T03:52:14;102455.50;;;-27.72;65.81
60089;BME280;45961;53.574;55.878;2024-02-23T03:53:15;102464.06;;;-27.74;65.48
60089;BME280;45961;53.574;55.878;2024-02-23T03:54:16;102473.38;;;-27.63;65.55
60089;BME280;45961;53.574;55.878;2024-02-23T03:55:16;102462.38;;;-27.53;65.71
60089;BME280;45961;53.574;55.878;2024-02-23T03:56:18;102458.66;;;-27.47;65.73
60089;BME280;45961;53.574;55.878;2024-02-23T03:57:19;102459.88;;;-27.44;65.59
60089;BME280;45961;53.574;55.878;2024-02-23T03:58:20;102457.41;;;-27.40;65.61
60089;BME280;45961;53.574;55.878;2024-02-23T03:59:21;102464.38;;;-27.38;65.49
60089;BME280;45961;53.574;55.878;2024-02-23T04:00:22;102466.59;;;-27.48;65.37
60089;BME280;45961;53.574;55.878;2024-02-23T04:01:23;102470.88;;;-27.55;65.48
60089;BME280;45961;53.574;55.878;2024-02-23T04:02:24;102462.28;;;-27.40;65.34
60089;BME280;45961;53.574;55.878;2024-02-23T04:03:25;102458.81;;;-27.25;65.59
60089;BME280;45961;53.574;55.878;2024-02-23T04:04:26;102467.31;;;-27.27;65.34
60089;BME280;45961;53.574;55.878;2024-02-23T04:05:27;102464.88;;;-27.27;65.32
60089;BME280;45961;53.574;55.878;2024-02-23T04:06:28;102462.09;;;-27.20;65.04
60089;BME280;45961;53.574;55.878;2024-02-23T04:07:28;102464.81;;;-27.18;64.85
60089;BME280;45961;53.574;55.878;2024-02-23T04:08:30;102469.41;;;-27.20;64.75
60089;BME280;45961;53.574;55.878;2024-02-23T04:09:32;102471.88;;;-27.24;64.25
60089;BME280;45961;53.574;55.878;2024-02-23T04:10:33;102458.81;;;-27.25;64.02
60089;BME280;45961;53.574;55.878;2024-02-23T04:11:34;102463.34;;;-27.26;64.10
60089;BME280;45961;53.574;55.878;2024-02-23T04:12:35;102473.22;;;-27.42;63.70
60089;BME280;45961;53.574;55.878;2024-02-23T04:13:36;102466.56;;;-27.43;63.56
60089;BME280;45961;53.574;55.878;2024-02-23T04:14:37;102477.00;;;-27.57;63.84
60089;BME280;45961;53.574;55.878;2024-02-23T04:15:38;102479.72;;;-27.55;63.88
60089;BME280;45961;53.574;55.878;2024-02-23T04:16:41;102477.56;;;-27.54;64.01
60089;BME280;45961;53.574;55.878;2024-02-23T04:17:42;102473.84;;;-27.43;63.88
60089;BME280;45961;53.574;55.878;2024-02-23T04:18:43;102474.44;;;-27.40;63.94
60089;BME280;45961;53.574;55.878;2024-02-23T04:19:43;102470.41;;;-27.02;64.23
60089;BME280;45961;53.574;55.878;2024-02-23T04:20:44;102465.38;;;-26.55;64.08
60089;BME280;45961;53.574;55.878;2024-02-23T04:21:45;102455.19;;;-26.01;64.01
60089;BME280;45961;53.574;55.878;2024-02-23T04:22:46;102440.56;;;-25.61;63.54
60089;BME280;45961;53.574;55.878;2024-02-23T04:23:47;102434.38;;;-25.37;62.72
60089;BME280;45961;53.574;55.878;2024-02-23T04:24:48;102433.69;;;-25.00;62.30
60089;BME280;45961;53.574;55.878;2024-02-23T04:25:50;102424.47;;;-24.79;61.46
60089;BME280;45961;53.574;55.878;2024-02-23T04:26:51;102420.69;;;-24.73;61.10
60089;BME280;45961;53.574;55.878;2024-02-23T04:27:52;102413.31;;;-24.55;60.53
60089;BME280;45961;53.574;55.878;2024-02-23T04:28:53;102406.63;;;-24.42;59.77
60089;BME280;45961;53.574;55.878;2024-02-23T04:29:54;102411.03;;;-24.63;59.57
60089;BME280;45961;53.574;55.878;2024-02-23T04:30:55;102420.66;;;-25.05;59.36
60089;BME280;45961;53.574;55.878;2024-02-23T04:31:56;102420.91;;;-25.35;59.15
60089;BME280;45961;53.574;55.878;2024-02-23T04:32:56;102424.94;;;-25.57;59.30
60089;BME280;45961;53.574;55.878;2024-02-23T04:33:57;102423.25;;;-25.66;59.48
60089;BME280;45961;53.574;55.878;2024-02-23T04:34:58;102422.75;;;-25.74;59.78
60089;BME280;45961;53.574;55.878;2024-02-23T04:35:59;102424.84;;;-25.71;60.10
60089;BME280;45961;53.574;55.878;2024-02-23T04:37:00;102427.31;;;-25.71;60.40
60089;BME280;45961;53.574;55.878;2024-02-23T04:38:01;102427.72;;;-25.78;60.57
60089;BME280;45961;53.574;55.878;2024-02-23T04:39:01;102424.38;;;-25.78;60.71
60089;BME280;45961;53.574;55.878;2024-02-23T04:40:03;102420.13;;;-25.79;61.33
60089;BME280;45961;53.574;55.878;2024-02-23T04:41:06;102424.44;;;-25.82;61.58
60089;BME280;45961;53.574;55.878;2024-02-23T04:42:08;102419.50;;;-25.78;61.71
60089;BME280;45961;53.574;55.878;2024-02-23T04:43:11;102416.44;;;-25.77;62.05
60089;BME280;45961;53.574;55.878;2024-02-23T04:44:12;102417.22;;;-25.73;62.12
60089;BME280;45961;53.574;55.878;2024-02-23T04:45:13;102421.31;;;-25.77;62.56
60089;BME280;45961;53.574;55.878;2024-02-23T04:46:15;102427.88;;;-25.68;62.56
60089;BME280;45961;53.574;55.878;2024-02-23T04:47:16;102430.97;;;-25.73;62.43
60089;BME280;45961;53.574;55.878;2024-02-23T04:48:17;102417.47;;;-25.67;62.56
60089;BME280;45961;53.574;55.878;2024-02-23T04:49:17;102418.16;;;-25.72;62.56
60089;BME280;45961;53.574;55.878;2024-02-23T04:50:18;102421.03;;;-25.79;62.79
60089;BME280;45961;53.574;55.878;2024-02-23T04:51:24;102427.75;;;-26.00;62.56
60089;BME280;45961;53.574;55.878;2024-02-23T04:52:25;102420.41;;;-25.78;62.90
60089;BME280;45961;53.574;55.878;2024-02-23T04:53:26;102425.13;;;-25.87;62.77
60089;BME280;45961;53.574;55.878;2024-02-23T04:54:27;102421.38;;;-25.81;62.71
60089;BME280;45961;53.574;55.878;2024-02-23T04:55:31;102417.47;;;-25.67;62.78
60089;BME280;45961;53.574;55.878;2024-02-23T04:56:32;102418.94;;;-25.63;62.86
60089;BME280;45961;53.574;55.878;2024-02-23T04:57:36;102420.13;;;-25.61;62.85
60089;BME280;45961;53.574;55.878;2024-02-23T04:58:37;102415.59;;;-25.64;63.14
60089;BME280;45961;53.574;55.878;2024-02-23T04:59:39;102414.28;;;-25.58;62.66
60089;BME280;45961;53.574;55.878;2024-02-23T05:00:39;102414.56;;;-25.38;62.73
60089;BME280;45961;53.574;55.878;2024-02-23T05:01:40;102413.59;;;-25.35;62.76
60089;BME280;45961;53.574;55.878;2024-02-23T05:02:41;102420.47;;;-25.28;63.13
60089;BME280;45961;53.574;55.878;2024-02-23T05:03:42;102417.28;;;-25.37;63.04
60089;BME280;45961;53.574;55.878;2024-02-23T05:04:43;102421.25;;;-25.37;62.85
60089;BME280;45961;53.574;55.878;2024-02-23T05:05:44;102421.25;;;-25.37;63.15
60089;BME280;45961;53.574;55.878;2024-02-23T05:06:44;102420.63;;;-25.36;62.91
60089;BME280;45961;53.574;55.878;2024-02-23T05:07:45;102420.47;;;-25.28;63.11
60089;BME280;45961;53.574;55.878;2024-02-23T05:08:46;102416.09;;;-25.21;63.17
60089;BME280;45961;53.574;55.878;2024-02-23T05:09:47;102413.88;;;-25.15;63.38
60089;BME280;45961;53.574;55.878;2024-02-23T05:10:48;102421.66;;;-25.08;63.28
60089;BME280;45961;53.574;55.878;2024-02-23T05:11:49;102405.69;;;-24.88;63.78